createdAt,value
2023-01-17T00:02:31.634Z,1.22
2023-01-17T00:07:52.536Z,0.95
2023-01-17T00:12:57.471Z,0.74
2023-01-17T00:18:01.958Z,0.57
2023-01-17T00:23:25.278Z,0.49
2023-01-17T00:28:28.067Z,0.64
2023-01-17T00:33:31.792Z,0.75
2023-01-17T00:38:36.481Z,0.93
2023-01-17T00:43:57.366Z,1.01
2023-01-17T00:49:19.661Z,0.95
2023-01-17T00:54:40.321Z,0.92
2023-01-17T01:00:00.950Z,0.97
2023-01-17T01:05:23.547Z,0.98
2023-01-17T01:10:44.118Z,1.01
2023-01-17T01:16:04.987Z,0.98
2023-01-17T01:21:26.932Z,0.92
2023-01-17T01:26:47.569Z,0.87
2023-01-17T01:32:08.282Z,0.90
2023-01-17T01:37:12.826Z,1.04
2023-01-17T01:42:17.193Z,1.31
2023-01-17T01:47:25.528Z,1.42
2023-01-17T01:52:32.860Z,1.30
2023-01-17T01:57:41.279Z,1.28
2023-01-17T02:02:47.033Z,1.38
2023-01-17T02:07:54.561Z,1.43
2023-01-17T02:13:01.689Z,1.29
2023-01-17T02:18:14.904Z,1.20
2023-01-17T02:23:45.233Z,1.10
2023-01-17T02:29:07.005Z,1.04
2023-01-17T02:34:21.176Z,0.86
2023-01-17T02:39:31.180Z,0.85
2023-01-17T02:44:41.360Z,0.79
2023-01-17T02:49:45.879Z,0.82
2023-01-17T02:55:03.150Z,0.83
2023-01-17T03:00:16.346Z,1.01
2023-01-17T03:05:26.832Z,1.01
2023-01-17T03:10:32.114Z,1.15
2023-01-17T03:15:35.432Z,1.23
2023-01-17T03:20:39.959Z,1.12
2023-01-17T03:25:43.011Z,0.96
2023-01-17T03:30:46.438Z,0.87
2023-01-17T03:35:51.031Z,0.82
2023-01-17T03:40:54.516Z,0.80
2023-01-17T03:46:04.096Z,0.84
2023-01-17T03:51:08.802Z,0.79
2023-01-17T03:56:11.869Z,0.87
2023-01-17T04:01:15.082Z,0.92
2023-01-17T04:06:19.543Z,0.84
2023-01-17T04:11:22.586Z,0.85
2023-01-17T04:16:30.212Z,0.80
2023-01-17T04:21:34.762Z,0.79
2023-01-17T04:26:39.829Z,0.79
2023-01-17T04:31:42.834Z,0.75
2023-01-17T04:36:47.407Z,0.70
2023-01-17T04:41:50.472Z,0.64
2023-01-17T04:46:53.549Z,0.59
2023-01-17T04:52:00.165Z,0.57
2023-01-17T04:57:03.117Z,0.54
2023-01-17T05:02:07.961Z,0.52
2023-01-17T05:07:12.450Z,0.46
2023-01-17T05:12:18.291Z,0.50
2023-01-17T05:17:21.425Z,0.52
2023-01-17T05:22:25.873Z,0.51
2023-01-17T05:27:29.617Z,0.58
2023-01-17T05:32:32.614Z,0.67
2023-01-17T05:37:37.028Z,0.63
2023-01-17T05:42:40.159Z,0.63
2023-01-17T05:47:43.197Z,0.60
2023-01-17T05:52:52.957Z,0.62
2023-01-17T05:57:56.749Z,0.61
2023-01-17T06:03:01.555Z,0.52
2023-01-17T06:08:06.743Z,0.60
2023-01-17T06:13:12.695Z,0.68
2023-01-17T06:18:17.351Z,0.62
2023-01-17T06:23:23.350Z,0.57
2023-01-17T06:28:26.374Z,0.43
2023-01-17T06:33:31.517Z,0.45
2023-01-17T06:38:36.018Z,0.45
2023-01-17T06:43:39.371Z,0.39
2023-01-17T06:48:43.675Z,0.37
2023-01-17T06:53:48.875Z,0.40
2023-01-17T06:58:52.598Z,0.39
2023-01-17T07:03:55.670Z,0.35
2023-01-17T07:09:01.270Z,0.40
2023-01-17T07:14:04.301Z,0.34
2023-01-17T07:19:07.274Z,0.24
2023-01-17T07:24:11.919Z,0.15
2023-01-17T07:29:14.969Z,0.17
2023-01-17T07:34:18.255Z,0.14
2023-01-17T07:39:22.783Z,0.12
2023-01-17T07:44:25.853Z,0.11
2023-01-17T07:49:29.013Z,0.05
2023-01-17T07:54:39.886Z,0.05
2023-01-17T07:59:42.990Z,0.00
2023-01-17T08:04:46.376Z,0.07
2023-01-17T08:09:50.833Z,0.06
2023-01-17T08:14:57.199Z,0.02
2023-01-17T08:20:00.615Z,0.08
2023-01-17T08:25:05.707Z,0.12
2023-01-17T08:30:10.403Z,0.07
2023-01-17T08:35:14.178Z,0.10
2023-01-17T08:40:19.769Z,0.14
2023-01-17T08:45:22.795Z,0.20
2023-01-17T08:50:26.114Z,0.20
2023-01-17T08:55:33.734Z,0.15
2023-01-17T09:00:37.369Z,0.13
2023-01-17T09:05:40.885Z,0.26
2023-01-17T09:10:46.063Z,0.36
2023-01-17T09:15:49.295Z,0.37
2023-01-17T09:20:55.241Z,0.35
2023-01-17T09:26:04.126Z,0.43
2023-01-17T09:31:08.831Z,0.53
2023-01-17T09:36:12.349Z,0.60
2023-01-17T09:41:27.942Z,0.73
2023-01-17T09:46:34.605Z,0.80
2023-01-17T09:51:38.622Z,0.81
2023-01-17T09:56:53.277Z,0.90
2023-01-17T10:02:07.253Z,1.00
2023-01-17T10:07:27.717Z,1.13
2023-01-17T10:12:40.745Z,1.31
2023-01-17T10:17:54.669Z,1.42
2023-01-17T10:23:12.665Z,1.48
2023-01-17T10:28:21.468Z,1.52
2023-01-17T10:33:32.623Z,1.56
2023-01-17T10:38:38.023Z,1.56
2023-01-17T10:43:47.876Z,1.70
2023-01-17T10:48:53.698Z,1.80
2023-01-17T10:54:13.213Z,1.93
2023-01-17T10:59:28.690Z,2.03
2023-01-17T11:04:35.894Z,2.17
2023-01-17T11:09:40.634Z,2.24
2023-01-17T11:14:58.904Z,2.30
2023-01-17T11:20:16.784Z,2.14
2023-01-17T11:25:23.249Z,2.25
2023-01-17T11:30:29.505Z,2.34
2023-01-17T11:35:37.629Z,2.35
2023-01-17T11:40:42.897Z,2.23
2023-01-17T11:45:48.577Z,2.32
2023-01-17T11:50:57.471Z,2.35
2023-01-17T11:56:06.351Z,2.49
2023-01-17T12:01:23.858Z,2.59
2023-01-17T12:06:51.505Z,2.66
2023-01-17T12:12:28.365Z,2.70
2023-01-17T12:17:47.669Z,2.97
2023-01-17T12:23:14.141Z,3.06
2023-01-17T12:28:41.569Z,3.09
2023-01-17T12:33:53.857Z,3.09
2023-01-17T12:39:00.142Z,3.17
2023-01-17T12:44:03.389Z,3.32
2023-01-17T12:49:21.884Z,3.40
2023-01-17T12:54:32.750Z,3.44
2023-01-17T12:59:41.867Z,3.56
2023-01-17T13:04:58.781Z,3.69
2023-01-17T13:10:22.282Z,3.78
2023-01-17T13:15:28.372Z,3.82
2023-01-17T13:20:42.867Z,3.89
2023-01-17T13:25:49.413Z,3.93
2023-01-17T13:31:22.185Z,4.05
2023-01-17T13:36:47.090Z,4.13
2023-01-17T13:41:54.247Z,4.14
2023-01-17T13:47:00.774Z,4.09
2023-01-17T13:52:10.130Z,4.14
2023-01-17T13:57:47.254Z,4.15
2023-01-17T14:02:57.554Z,4.10
2023-01-17T14:08:14.183Z,4.11
2023-01-17T14:13:34.065Z,3.95
2023-01-17T14:18:41.905Z,3.96
2023-01-17T14:24:17.401Z,3.88
2023-01-17T14:29:54.799Z,3.90
2023-01-17T14:34:58.468Z,3.94
2023-01-17T14:40:15.299Z,3.87
2023-01-17T14:45:25.442Z,3.92
2023-01-17T14:50:31.444Z,3.90
2023-01-17T14:55:36.584Z,3.70
2023-01-17T15:00:40.735Z,3.65
2023-01-17T15:06:29.672Z,3.54
2023-01-17T15:11:36.741Z,3.54
2023-01-17T15:16:41.093Z,3.59
2023-01-17T15:21:46.964Z,3.59
2023-01-17T15:26:51.433Z,3.57
2023-01-17T15:31:58.535Z,3.48
2023-01-17T15:37:08.610Z,3.35
2023-01-17T15:42:22.902Z,3.20
2023-01-17T15:47:29.830Z,3.04
2023-01-17T15:52:49.256Z,2.85
2023-01-17T15:57:54.170Z,2.71
2023-01-17T16:02:58.996Z,2.54
2023-01-17T16:08:31.542Z,2.37
2023-01-17T16:13:39.463Z,2.21
2023-01-17T16:18:43.118Z,2.04
2023-01-17T16:23:46.477Z,1.98
2023-01-17T16:28:51.161Z,1.85
2023-01-17T16:33:54.263Z,1.74
2023-01-17T16:38:57.284Z,1.67
2023-01-17T16:44:05.400Z,1.56
2023-01-17T16:49:08.481Z,1.42
2023-01-17T16:54:11.612Z,1.37
2023-01-17T16:59:16.173Z,1.26
2023-01-17T17:04:19.253Z,1.19
2023-01-17T17:09:22.388Z,1.09
2023-01-17T17:14:26.925Z,1.06
2023-01-17T17:19:30.040Z,0.97
2023-01-17T17:24:34.196Z,0.89
2023-01-17T17:29:38.979Z,0.84
2023-01-17T17:34:42.057Z,0.75
2023-01-17T17:39:45.547Z,0.69
2023-01-17T17:44:50.291Z,0.61
2023-01-17T17:49:53.310Z,0.60
2023-01-17T17:54:56.428Z,0.52
2023-01-17T18:00:01.158Z,0.45
2023-01-17T18:05:10.909Z,0.37
2023-01-17T18:10:14.259Z,0.33
2023-01-17T18:15:24.313Z,0.26
2023-01-17T18:20:29.072Z,0.23
2023-01-17T18:25:32.488Z,0.12
2023-01-17T18:30:38.556Z,0.10
2023-01-17T18:35:44.273Z,0.06
2023-01-17T18:40:47.731Z,0.02
2023-01-17T18:45:55.243Z,-0.02
2023-01-17T18:51:00.359Z,-0.06
2023-01-17T18:56:06.898Z,-0.08
2023-01-17T19:01:14.322Z,-0.14
2023-01-17T19:06:20.680Z,-0.16
2023-01-17T19:11:25.437Z,-0.24
2023-01-17T19:16:32.674Z,-0.19
2023-01-17T19:21:36.531Z,-0.27
2023-01-17T19:26:39.647Z,-0.32
2023-01-17T19:31:44.032Z,-0.29
2023-01-17T19:36:47.670Z,-0.34
2023-01-17T19:41:51.146Z,-0.36
2023-01-17T19:46:56.842Z,-0.39
2023-01-17T19:51:59.994Z,-0.42
2023-01-17T19:57:03.161Z,-0.49
2023-01-17T20:02:07.669Z,-0.50
2023-01-17T20:07:10.774Z,-0.57
2023-01-17T20:12:13.886Z,-0.59
2023-01-17T20:17:18.790Z,-0.65
2023-01-17T20:22:22.101Z,-0.70
2023-01-17T20:27:26.600Z,-0.72
2023-01-17T20:32:31.083Z,-0.75
2023-01-17T20:37:34.210Z,-0.75
2023-01-17T20:42:37.743Z,-0.77
2023-01-17T20:47:42.160Z,-0.79
2023-01-17T20:52:45.533Z,-0.84
2023-01-17T20:57:48.766Z,-0.86
2023-01-17T21:02:55.189Z,-0.91
2023-01-17T21:07:58.725Z,-0.89
2023-01-17T21:13:02.574Z,-0.96
2023-01-17T21:18:07.176Z,-0.93
2023-01-17T21:23:17.885Z,-0.93
2023-01-17T21:28:21.267Z,-0.90
2023-01-17T21:33:29.764Z,-0.94
2023-01-17T21:38:32.917Z,-0.96
2023-01-17T21:43:36.323Z,-0.98
2023-01-17T21:48:41.591Z,-1.00
2023-01-17T21:53:44.680Z,-1.01
2023-01-17T21:58:49.290Z,-1.03
2023-01-17T22:03:55.374Z,-1.06
2023-01-17T22:08:59.532Z,-1.09
2023-01-17T22:14:05.487Z,-1.13
2023-01-17T22:19:10.255Z,-1.20
2023-01-17T22:24:16.020Z,-1.18
2023-01-17T22:29:19.189Z,-1.17
2023-01-17T22:34:24.033Z,-1.24
2023-01-17T22:39:27.232Z,-1.30
2023-01-17T22:44:30.466Z,-1.30
2023-01-17T22:49:34.876Z,-1.27
2023-01-17T22:54:43.314Z,-1.28
2023-01-17T22:59:46.392Z,-1.27
2023-01-17T23:04:50.796Z,-1.29
2023-01-17T23:09:54.592Z,-1.29
2023-01-17T23:15:15.397Z,-1.31
2023-01-17T23:20:19.864Z,-1.29
2023-01-17T23:25:23.190Z,-1.33
2023-01-17T23:30:29.179Z,-1.35
2023-01-17T23:35:41.540Z,-1.37
2023-01-17T23:41:05.569Z,-1.35
2023-01-17T23:46:13.017Z,-1.34
2023-01-17T23:51:17.736Z,-1.36
2023-01-17T23:56:23.502Z,-1.39
